createdAt,value
2018-11-05T00:01:57.532Z,68.33
2018-11-05T00:04:25.990Z,90.63
2018-11-05T00:06:54.459Z,70.53
2018-11-05T00:09:22.934Z,65.30
2018-11-05T00:11:51.443Z,76.90
2018-11-05T00:14:19.976Z,76.33
2018-11-05T00:16:48.513Z,75.77
2018-11-05T00:19:16.995Z,73.63
2018-11-05T00:21:45.475Z,88.17
2018-11-05T00:24:14.277Z,76.07
2018-11-05T00:26:42.777Z,79.33
2018-11-05T00:29:11.286Z,86.47
2018-11-05T00:31:39.781Z,84.70
2018-11-05T00:34:08.266Z,87.03
2018-11-05T00:36:36.721Z,73.20
2018-11-05T00:39:08.270Z,75.28
2018-11-05T00:41:37.608Z,74.30
2018-11-05T00:44:06.809Z,68.50
2018-11-05T00:46:35.497Z,84.87
2018-11-05T00:49:04.388Z,86.27
2018-11-05T00:51:33.284Z,91.50
2018-11-05T00:54:01.787Z,73.47
2018-11-05T00:56:30.333Z,76.70
2018-11-05T00:58:58.944Z,73.47
2018-11-05T01:01:28.280Z,84.77
2018-11-05T01:03:56.759Z,89.20
2018-11-05T01:06:25.495Z,72.83
2018-11-05T01:08:53.974Z,71.80
2018-11-05T01:11:22.453Z,75.60
2018-11-05T01:13:50.968Z,71.63
2018-11-05T01:16:19.422Z,71.43
2018-11-05T01:18:47.936Z,81.23
2018-11-05T01:21:16.391Z,70.93
2018-11-05T01:23:44.907Z,69.60
2018-11-05T01:26:13.403Z,71.67
2018-11-05T01:28:41.883Z,92.10
2018-11-05T01:31:10.348Z,77.47
2018-11-05T01:33:39.063Z,79.10
2018-11-05T01:36:07.556Z,79.23
2018-11-05T01:38:36.194Z,70.97
2018-11-05T01:41:04.715Z,72.67
2018-11-05T01:43:33.207Z,81.47
2018-11-05T01:46:01.648Z,63.77
2018-11-05T01:48:30.117Z,82.30
2018-11-05T01:50:58.768Z,82.67
2018-11-05T01:53:27.259Z,63.40
2018-11-05T01:55:55.746Z,81.75
2018-11-05T01:58:24.272Z,72.17
2018-11-05T02:00:52.759Z,68.43
2018-11-05T02:03:21.284Z,74.77
2018-11-05T02:05:50.004Z,66.73
2018-11-05T02:08:18.559Z,70.40
2018-11-05T02:10:47.072Z,65.65
2018-11-05T02:13:15.568Z,62.67
2018-11-05T02:15:44.079Z,49.18
2018-11-05T02:18:12.571Z,64.37
2018-11-05T02:20:41.064Z,60.20
2018-11-05T02:23:09.529Z,65.53
2018-11-05T02:25:38.015Z,66.97
2018-11-05T02:28:07.158Z,62.40
2018-11-05T02:30:35.852Z,73.30
2018-11-05T02:33:04.371Z,65.67
2018-11-05T02:35:32.904Z,60.33
2018-11-05T02:38:01.380Z,57.13
2018-11-05T02:40:29.891Z,61.03
2018-11-05T02:42:58.414Z,59.00
2018-11-05T02:45:27.188Z,62.93
2018-11-05T02:47:55.648Z,61.77
2018-11-05T02:50:24.279Z,80.03
2018-11-05T02:52:52.802Z,64.32
2018-11-05T02:55:21.277Z,56.30
2018-11-05T02:57:49.732Z,64.80
2018-11-05T03:00:19.392Z,50.80
2018-11-05T03:02:48.183Z,76.70
2018-11-05T03:05:18.797Z,56.13
2018-11-05T03:07:48.346Z,63.10
2018-11-05T03:10:17.204Z,62.50
2018-11-05T03:12:46.698Z,64.77
2018-11-05T03:15:16.535Z,71.73
2018-11-05T03:17:45.008Z,68.27
2018-11-05T03:20:14.603Z,77.87
2018-11-05T03:22:43.619Z,55.37
2018-11-05T03:25:12.155Z,64.57
2018-11-05T03:27:41.272Z,67.87
2018-11-05T03:30:11.735Z,48.40
2018-11-05T03:32:40.534Z,66.90
2018-11-05T03:35:10.332Z,62.40
2018-11-05T03:37:39.437Z,59.87
2018-11-05T03:40:09.362Z,50.23
2018-11-05T03:42:38.786Z,62.10
2018-11-05T03:45:08.761Z,59.17
2018-11-05T03:47:37.235Z,50.70
2018-11-05T03:50:07.944Z,59.87
2018-11-05T03:52:36.788Z,71.30
2018-11-05T03:55:06.061Z,67.27
2018-11-05T03:57:34.520Z,55.40
2018-11-05T04:00:03.100Z,68.77
2018-11-05T04:02:31.900Z,60.05
2018-11-05T04:05:00.337Z,72.27
2018-11-05T04:07:29.312Z,57.60
2018-11-05T04:09:57.892Z,63.63
2018-11-05T04:15:25.412Z,67.60
2018-11-05T04:17:53.947Z,59.60
2018-11-05T04:20:22.481Z,58.15
2018-11-05T04:22:50.980Z,70.17
2018-11-05T04:25:19.410Z,60.70
2018-11-05T04:27:48.037Z,73.67
2018-11-05T04:30:16.917Z,71.33
2018-11-05T04:32:45.391Z,58.67
2018-11-05T04:35:14.329Z,59.30
2018-11-05T04:37:43.193Z,70.47
2018-11-05T04:40:12.167Z,60.52
2018-11-05T04:42:41.015Z,64.50
2018-11-05T04:45:11.397Z,74.80
2018-11-05T04:47:40.021Z,53.93
2018-11-05T04:50:10.350Z,63.48
2018-11-05T04:52:39.736Z,75.47
2018-11-05T04:55:08.497Z,66.37
2018-11-05T04:57:37.427Z,83.03
2018-11-05T05:00:12.117Z,76.00
2018-11-05T05:02:41.660Z,65.17
2018-11-05T05:05:11.227Z,73.93
2018-11-05T05:07:39.691Z,70.40
2018-11-05T05:10:09.138Z,68.87
2018-11-05T05:12:38.664Z,72.40
2018-11-05T05:15:07.580Z,67.40
2018-11-05T05:17:36.157Z,88.15
2018-11-05T05:20:06.393Z,68.42
2018-11-05T05:22:34.946Z,74.40
2018-11-05T05:25:03.417Z,74.73
2018-11-05T05:27:31.897Z,66.80
2018-11-05T05:30:00.379Z,60.73
2018-11-05T05:32:28.885Z,76.80
2018-11-05T05:34:57.387Z,60.97
2018-11-05T05:37:25.877Z,75.37
2018-11-05T05:39:54.378Z,62.80
2018-11-05T05:42:22.914Z,57.67
2018-11-05T05:44:51.443Z,63.97
2018-11-05T05:47:19.947Z,57.87
2018-11-05T05:49:48.477Z,51.37
2018-11-05T05:52:16.971Z,60.27
2018-11-05T05:54:45.473Z,58.60
2018-11-05T05:57:14.033Z,54.90
2018-11-05T05:59:42.721Z,46.90
2018-11-05T06:02:11.394Z,53.90
2018-11-05T06:04:40.320Z,67.93
2018-11-05T06:07:09.029Z,50.80
2018-11-05T06:09:37.512Z,49.43
2018-11-05T06:12:06.808Z,54.10
2018-11-05T06:14:35.510Z,55.90
2018-11-05T06:17:04.060Z,66.13
2018-11-05T06:19:32.537Z,46.37
2018-11-05T06:22:01.122Z,58.83
2018-11-05T06:24:29.882Z,54.03
2018-11-05T06:26:58.392Z,58.33
2018-11-05T06:29:26.877Z,57.53
2018-11-05T06:31:55.389Z,50.45
2018-11-05T06:34:23.866Z,50.88
2018-11-05T06:36:52.347Z,50.33
2018-11-05T06:39:21.111Z,52.27
2018-11-05T06:41:49.628Z,55.63
2018-11-05T06:44:18.172Z,61.75
2018-11-05T06:46:46.696Z,50.50
2018-11-05T06:49:15.234Z,46.53
2018-11-05T06:51:43.731Z,47.77
2018-11-05T06:54:12.469Z,57.93
2018-11-05T06:56:40.928Z,56.97
2018-11-05T06:59:09.418Z,45.17
2018-11-05T07:01:38.078Z,48.23
2018-11-05T07:04:06.775Z,44.57
2018-11-05T07:06:35.268Z,56.23
2018-11-05T07:09:05.450Z,49.97
2018-11-05T07:11:34.048Z,47.20
2018-11-05T07:14:02.429Z,38.40
2018-11-05T07:16:30.902Z,57.78
2018-11-05T07:18:59.593Z,46.63
2018-11-05T07:21:27.863Z,52.23
2018-11-05T07:23:56.341Z,39.13
2018-11-05T07:26:24.848Z,34.80
2018-11-05T07:28:53.372Z,41.93
2018-11-05T07:31:21.854Z,45.87
2018-11-05T07:33:50.709Z,39.50
2018-11-05T07:36:19.648Z,45.90
2018-11-05T07:38:48.139Z,54.73
2018-11-05T07:41:16.652Z,36.53
2018-11-05T07:43:45.157Z,32.53
2018-11-05T07:46:13.659Z,34.25
2018-11-05T07:48:42.202Z,32.27
2018-11-05T07:51:10.671Z,37.53
2018-11-05T07:53:39.189Z,37.97
2018-11-05T07:56:08.085Z,34.40
2018-11-05T07:58:36.502Z,39.10
2018-11-05T08:01:05.760Z,37.77
2018-11-05T08:03:34.230Z,26.60
2018-11-05T08:06:02.682Z,31.80
2018-11-05T08:08:31.682Z,27.50
2018-11-05T08:11:00.446Z,31.93
2018-11-05T08:13:28.935Z,33.53
2018-11-05T08:15:57.455Z,29.33
2018-11-05T08:18:26.184Z,26.63
2018-11-05T08:20:54.664Z,29.43
2018-11-05T08:23:23.138Z,24.20
2018-11-05T08:25:51.658Z,22.70
2018-11-05T08:28:20.136Z,24.27
2018-11-05T08:30:48.652Z,21.47
2018-11-05T08:33:17.342Z,24.13
2018-11-05T08:35:45.793Z,22.33
2018-11-05T08:38:14.475Z,30.23
2018-11-05T08:40:42.994Z,23.30
2018-11-05T08:43:11.497Z,21.17
2018-11-05T08:45:39.984Z,30.30
2018-11-05T08:48:08.593Z,21.30
2018-11-05T08:50:37.101Z,19.05
2018-11-05T08:53:05.633Z,20.50
2018-11-05T08:55:34.124Z,20.57
2018-11-05T08:58:02.597Z,20.77
2018-11-05T09:00:36.245Z,18.20
2018-11-05T09:03:05.368Z,25.07
2018-11-05T09:05:33.900Z,13.10
2018-11-05T09:08:02.383Z,19.03
2018-11-05T09:10:31.047Z,19.00
2018-11-05T09:12:59.364Z,23.87
2018-11-05T09:15:27.841Z,23.37
2018-11-05T09:17:56.336Z,15.63
2018-11-05T09:20:24.946Z,19.67
2018-11-05T09:22:54.068Z,15.23
2018-11-05T09:25:22.583Z,17.87
2018-11-05T09:27:51.202Z,21.93
2018-11-05T09:30:21.045Z,19.03
2018-11-05T09:32:49.537Z,17.60
2018-11-05T09:35:18.524Z,20.17
2018-11-05T09:37:47.228Z,19.40
2018-11-05T09:40:17.880Z,23.93
2018-11-05T09:42:46.956Z,15.70
2018-11-05T09:45:21.924Z,31.35
2018-11-05T09:47:50.937Z,15.00
2018-11-05T09:50:20.007Z,15.47
2018-11-05T09:52:48.463Z,12.88
2018-11-05T09:55:17.276Z,12.80
2018-11-05T09:57:45.735Z,13.57
2018-11-05T10:00:17.360Z,15.35
2018-11-05T10:02:51.110Z,16.95
2018-11-05T10:05:19.617Z,10.97
2018-11-05T10:07:48.316Z,11.67
2018-11-05T10:10:17.685Z,13.50
2018-11-05T10:12:46.132Z,16.93
2018-11-05T10:15:15.870Z,13.70
2018-11-05T10:17:44.640Z,13.68
2018-11-05T10:20:21.055Z,15.00
2018-11-05T10:22:50.004Z,15.37
2018-11-05T10:25:30.087Z,13.40
2018-11-05T10:28:03.859Z,14.67
2018-11-05T10:30:33.241Z,12.90
2018-11-05T10:33:02.389Z,20.27
2018-11-05T10:35:36.323Z,13.30
2018-11-05T10:38:05.192Z,13.30
2018-11-05T10:40:33.764Z,14.90
2018-11-05T10:43:02.174Z,14.87
2018-11-05T10:45:30.660Z,24.20
2018-11-05T10:47:59.107Z,13.03
2018-11-05T10:50:27.590Z,27.53
2018-11-05T10:52:56.089Z,14.17
2018-11-05T10:58:07.533Z,11.30
2018-11-05T11:00:41.420Z,9.60
2018-11-05T11:03:18.832Z,12.03
2018-11-05T11:05:47.623Z,12.60
2018-11-05T11:08:16.598Z,14.43
2018-11-05T11:10:45.467Z,13.30
2018-11-05T11:13:14.292Z,20.67
2018-11-05T11:15:43.043Z,12.67
2018-11-05T11:18:11.512Z,12.77
2018-11-05T11:20:40.054Z,11.07
2018-11-05T11:23:08.502Z,11.33
2018-11-05T11:25:37.009Z,20.23
2018-11-05T11:28:06.111Z,17.80
2018-11-05T11:30:34.527Z,15.23
2018-11-05T11:33:02.988Z,11.63
2018-11-05T11:35:31.589Z,13.93
2018-11-05T11:38:00.076Z,13.37
2018-11-05T11:40:28.612Z,11.78
2018-11-05T11:42:57.051Z,13.67
2018-11-05T11:45:25.912Z,20.67
2018-11-05T11:47:54.735Z,16.87
2018-11-05T11:50:23.388Z,16.00
2018-11-05T11:52:52.356Z,18.10
2018-11-05T11:55:21.946Z,12.95
2018-11-05T11:57:50.466Z,16.03
2018-11-05T12:00:22.056Z,12.83
2018-11-05T12:02:51.446Z,13.15
2018-11-05T12:05:20.272Z,24.93
2018-11-05T12:07:49.669Z,23.73
2018-11-05T12:10:20.910Z,16.35
2018-11-05T12:12:49.414Z,14.05
2018-11-05T12:15:18.859Z,15.23
2018-11-05T12:17:48.392Z,16.50
2018-11-05T12:20:18.351Z,15.37
2018-11-05T12:22:47.565Z,26.87
2018-11-05T12:25:16.060Z,11.27
2018-11-05T12:27:44.816Z,18.63
2018-11-05T12:30:15.864Z,13.63
2018-11-05T12:32:45.431Z,21.87
2018-11-05T12:35:14.461Z,21.97
2018-11-05T12:37:44.826Z,18.20
2018-11-05T12:40:14.952Z,17.73
2018-11-05T12:42:44.888Z,25.13
2018-11-05T12:45:13.360Z,19.40
2018-11-05T12:47:41.867Z,20.97
2018-11-05T12:50:14.453Z,18.30
2018-11-05T12:52:43.729Z,17.00
2018-11-05T12:55:12.283Z,18.10
2018-11-05T12:57:41.153Z,20.83
2018-11-05T13:00:13.344Z,26.55
2018-11-05T13:02:41.800Z,15.85
2018-11-05T13:05:11.948Z,22.37
2018-11-05T13:07:40.754Z,20.57
2018-11-05T13:10:11.484Z,22.63
2018-11-05T13:12:40.401Z,14.80
2018-11-05T13:15:09.799Z,21.23
2018-11-05T13:17:39.111Z,15.27
2018-11-05T13:20:09.968Z,20.87
2018-11-05T13:22:38.805Z,20.70
2018-11-05T13:25:07.356Z,17.53
2018-11-05T13:27:35.859Z,17.10
2018-11-05T13:30:05.339Z,26.05
2018-11-05T13:32:34.199Z,25.73
2018-11-05T13:35:02.964Z,22.40
2018-11-05T13:37:32.139Z,23.10
2018-11-05T13:40:00.736Z,24.43
2018-11-05T13:42:29.288Z,21.90
2018-11-05T13:44:57.801Z,18.57
2018-11-05T13:47:26.963Z,21.50
2018-11-05T13:49:55.238Z,23.10
2018-11-05T13:52:23.568Z,15.53
2018-11-05T13:54:52.194Z,21.77
2018-11-05T13:57:20.567Z,22.40
2018-11-05T13:59:49.121Z,18.67
2018-11-05T14:02:17.983Z,23.98
2018-11-05T14:04:46.584Z,22.23
2018-11-05T14:07:15.486Z,17.40
2018-11-05T14:09:44.352Z,25.37
2018-11-05T14:12:13.271Z,30.62
2018-11-05T14:14:41.935Z,24.93
2018-11-05T14:17:10.708Z,20.12
2018-11-05T14:19:39.175Z,27.93
2018-11-05T14:22:07.895Z,23.40
2018-11-05T14:24:36.643Z,17.40
2018-11-05T14:27:05.534Z,21.87
2018-11-05T14:29:34.808Z,22.40
2018-11-05T14:32:02.600Z,25.50
2018-11-05T14:34:31.094Z,24.20
2018-11-05T14:36:59.595Z,24.43
2018-11-05T14:39:27.978Z,32.33
2018-11-05T14:41:56.511Z,26.80
2018-11-05T14:44:25.371Z,20.95
2018-11-05T14:46:53.844Z,23.07
2018-11-05T14:49:22.628Z,22.97
2018-11-05T14:51:52.086Z,25.40
2018-11-05T14:54:20.531Z,30.43
2018-11-05T14:56:49.236Z,26.53
2018-11-05T14:59:17.728Z,28.23
2018-11-05T15:01:46.555Z,24.67
2018-11-05T15:04:15.795Z,24.63
2018-11-05T15:06:44.424Z,26.57
2018-11-05T15:09:13.760Z,21.33
2018-11-05T15:11:42.393Z,29.80
2018-11-05T15:14:11.101Z,40.00
2018-11-05T15:16:39.589Z,25.53
2018-11-05T15:19:08.305Z,32.10
2018-11-05T15:21:36.817Z,29.33
2018-11-05T15:24:05.589Z,22.97
2018-11-05T15:26:34.167Z,26.65
2018-11-05T15:29:02.630Z,18.63
2018-11-05T15:31:31.104Z,35.63
2018-11-05T15:33:59.905Z,34.50
2018-11-05T15:36:28.313Z,37.78
2018-11-05T15:38:57.136Z,31.33
2018-11-05T15:41:26.206Z,31.73
2018-11-05T15:43:55.040Z,38.00
2018-11-05T15:46:23.551Z,39.45
2018-11-05T15:48:52.116Z,44.27
2018-11-05T15:51:21.104Z,38.92
2018-11-05T15:53:49.540Z,40.93
2018-11-05T15:56:17.961Z,47.43
2018-11-05T15:58:46.539Z,35.37
2018-11-05T16:01:15.095Z,46.10
2018-11-05T16:03:43.628Z,47.40
2018-11-05T16:06:12.152Z,39.77
2018-11-05T16:08:40.793Z,44.57
2018-11-05T16:11:09.514Z,38.70
2018-11-05T16:13:38.341Z,49.10
2018-11-05T16:16:07.033Z,50.75
2018-11-05T16:18:35.530Z,37.47
2018-11-05T16:21:03.964Z,36.30
2018-11-05T16:23:32.498Z,37.83
2018-11-05T16:26:01.348Z,44.80
2018-11-05T16:28:30.025Z,46.42
2018-11-05T16:30:58.517Z,39.30
2018-11-05T16:33:27.003Z,51.77
2018-11-05T16:35:55.448Z,56.53
2018-11-05T16:38:23.999Z,39.17
2018-11-05T16:40:52.580Z,57.43
2018-11-05T16:43:21.146Z,49.27
2018-11-05T16:45:49.765Z,40.17
2018-11-05T16:48:18.188Z,48.77
2018-11-05T16:50:46.711Z,45.83
2018-11-05T16:53:15.184Z,42.60
2018-11-05T16:55:43.683Z,46.93
2018-11-05T16:58:12.253Z,50.60
2018-11-05T17:00:41.311Z,50.90
2018-11-05T17:03:10.543Z,42.07
2018-11-05T17:05:39.193Z,57.13
2018-11-05T17:08:07.818Z,43.03
2018-11-05T17:10:37.296Z,49.70
2018-11-05T17:13:06.377Z,49.83
2018-11-05T17:15:34.821Z,45.53
2018-11-05T17:18:03.388Z,52.63
2018-11-05T17:20:31.873Z,46.63
2018-11-05T17:23:00.416Z,47.43
2018-11-05T17:25:28.994Z,48.00
2018-11-05T17:27:57.695Z,47.03
2018-11-05T17:30:26.772Z,52.97
2018-11-05T17:32:55.516Z,44.77
2018-11-05T17:35:24.007Z,44.00
2018-11-05T17:37:52.511Z,56.47
2018-11-05T17:40:22.412Z,58.33
2018-11-05T17:42:50.933Z,48.60
2018-11-05T17:45:20.264Z,51.93
2018-11-05T17:47:49.235Z,64.33
2018-11-05T17:50:19.473Z,51.13
2018-11-05T17:52:47.979Z,45.50
2018-11-05T17:55:16.556Z,59.97
2018-11-05T17:57:46.241Z,46.85
2018-11-05T18:00:16.674Z,55.27
2018-11-05T18:02:45.148Z,42.65
2018-11-05T18:05:14.456Z,46.30
2018-11-05T18:07:43.284Z,46.25
2018-11-05T18:10:11.802Z,43.80
2018-11-05T18:12:40.641Z,63.90
2018-11-05T18:15:10.743Z,41.60
2018-11-05T18:17:40.283Z,44.23
2018-11-05T18:20:10.276Z,47.40
2018-11-05T18:22:39.173Z,41.42
2018-11-05T18:25:10.315Z,59.50
2018-11-05T18:27:39.120Z,51.27
2018-11-05T18:30:08.706Z,49.77
2018-11-05T18:32:37.311Z,40.40
2018-11-05T18:35:07.606Z,46.03
2018-11-05T18:37:36.539Z,55.13
2018-11-05T18:40:07.275Z,51.10
2018-11-05T18:42:36.066Z,57.43
2018-11-05T18:45:04.639Z,42.70
2018-11-05T18:47:33.228Z,39.17
2018-11-05T18:50:01.741Z,48.67
2018-11-05T18:52:30.235Z,48.20
2018-11-05T18:54:58.716Z,49.03
2018-11-05T18:57:26.119Z,44.33
2018-11-05T18:59:54.640Z,41.33
2018-11-05T19:02:29.451Z,47.03
2018-11-05T19:04:58.258Z,40.73
2018-11-05T19:07:26.907Z,39.33
2018-11-05T19:09:55.624Z,45.52
2018-11-05T19:12:24.123Z,40.50
2018-11-05T19:14:53.228Z,37.85
2018-11-05T19:17:21.922Z,50.90
2018-11-05T19:19:50.358Z,40.30
2018-11-05T19:22:19.231Z,39.67
2018-11-05T19:24:47.680Z,34.40
2018-11-05T19:27:16.395Z,29.27
2018-11-05T19:29:44.949Z,50.83
2018-11-05T19:32:13.436Z,38.67
2018-11-05T19:34:41.969Z,32.33
2018-11-05T19:37:11.136Z,44.70
2018-11-05T19:39:39.683Z,35.47
2018-11-05T19:42:08.470Z,36.13
2018-11-05T19:44:36.906Z,35.87
2018-11-05T19:47:05.473Z,39.97
2018-11-05T19:49:34.031Z,40.77
2018-11-05T19:52:02.855Z,45.60
2018-11-05T19:54:31.285Z,57.70
2018-11-05T19:56:59.733Z,33.38
2018-11-05T19:59:28.428Z,32.30
2018-11-05T20:01:57.205Z,33.60
2018-11-05T20:04:25.684Z,32.37
2018-11-05T20:06:54.245Z,40.45
2018-11-05T20:09:22.738Z,79.07
2018-11-05T20:11:51.209Z,38.40
2018-11-05T20:14:19.759Z,40.00
2018-11-05T20:16:48.316Z,33.70
2018-11-05T20:22:15.712Z,27.43
2018-11-05T20:24:44.149Z,30.33
2018-11-05T20:27:12.733Z,29.30
2018-11-05T20:29:41.556Z,33.90
2018-11-05T20:32:10.469Z,52.73
2018-11-05T20:34:38.859Z,40.50
2018-11-05T20:37:07.330Z,39.03
2018-11-05T20:39:35.795Z,32.23
2018-11-05T20:42:04.331Z,30.40
2018-11-05T20:44:32.867Z,27.33
2018-11-05T20:47:01.367Z,29.43
2018-11-05T20:49:44.614Z,36.07
2018-11-05T20:52:13.117Z,41.50
2018-11-05T20:54:41.596Z,30.23
2018-11-05T20:57:10.074Z,32.20
2018-11-05T20:59:38.680Z,31.47
2018-11-05T21:02:07.437Z,31.02
2018-11-05T21:04:35.936Z,33.40
2018-11-05T21:07:04.483Z,30.97
2018-11-05T21:09:32.953Z,29.73
2018-11-05T21:12:01.439Z,41.20
2018-11-05T21:14:30.030Z,34.17
2018-11-05T21:16:58.779Z,34.10
2018-11-05T21:19:27.448Z,44.47
2018-11-05T21:21:56.132Z,35.33
2018-11-05T21:24:25.810Z,35.10
2018-11-05T21:26:54.965Z,26.70
2018-11-05T21:29:23.641Z,31.53
2018-11-05T21:31:52.215Z,34.63
2018-11-05T21:34:20.721Z,32.00
2018-11-05T21:36:49.227Z,24.37
2018-11-05T21:39:17.697Z,28.70
2018-11-05T21:41:46.378Z,28.20
2018-11-05T21:44:15.439Z,30.80
2018-11-05T21:46:43.933Z,28.57
2018-11-05T21:49:12.875Z,34.80
2018-11-05T21:51:41.822Z,42.20
2018-11-05T21:54:10.387Z,33.60
2018-11-05T21:56:38.828Z,33.23
2018-11-05T21:59:07.891Z,36.27
2018-11-05T22:01:36.405Z,25.30
2018-11-05T22:04:05.425Z,25.40
2018-11-05T22:06:33.985Z,32.00
2018-11-05T22:09:02.478Z,31.17
2018-11-05T22:11:30.946Z,28.13
2018-11-05T22:13:59.415Z,28.40
2018-11-05T22:16:27.951Z,23.80
2018-11-05T22:18:56.779Z,27.58
2018-11-05T22:21:25.251Z,25.30
2018-11-05T22:23:53.955Z,24.60
2018-11-05T22:26:22.404Z,29.20
2018-11-05T22:28:50.891Z,29.10
2018-11-05T22:31:19.321Z,27.63
2018-11-05T22:33:48.079Z,37.23
2018-11-05T22:36:16.813Z,29.10
2018-11-05T22:38:45.323Z,24.47
2018-11-05T22:41:14.072Z,28.50
2018-11-05T22:43:42.592Z,30.47
2018-11-05T22:46:11.059Z,31.70
2018-11-05T22:48:39.637Z,26.30
2018-11-05T22:51:08.160Z,44.10
2018-11-05T22:53:36.687Z,28.63
2018-11-05T22:56:05.838Z,23.23
2018-11-05T22:58:34.300Z,26.57
2018-11-05T23:01:14.052Z,28.83
2018-11-05T23:03:42.505Z,31.13
2018-11-05T23:06:10.975Z,32.97
2018-11-05T23:08:39.439Z,23.43
2018-11-05T23:11:07.919Z,29.10
2018-11-05T23:13:36.408Z,27.43
2018-11-05T23:16:05.534Z,27.15
2018-11-05T23:18:34.007Z,24.27
2018-11-05T23:21:02.472Z,33.97
2018-11-05T23:23:31.003Z,29.17
2018-11-05T23:25:59.789Z,27.37
2018-11-05T23:28:28.259Z,28.85
2018-11-05T23:30:56.762Z,27.97
2018-11-05T23:33:25.205Z,24.60
2018-11-05T23:35:53.684Z,23.03
2018-11-05T23:38:22.162Z,29.72
2018-11-05T23:40:50.703Z,24.67
2018-11-05T23:43:19.146Z,24.10
2018-11-05T23:45:47.760Z,22.53
2018-11-05T23:48:16.282Z,21.43
2018-11-05T23:50:44.786Z,19.20
2018-11-05T23:53:13.427Z,31.53
2018-11-05T23:55:41.887Z,23.53
2018-11-05T23:58:10.460Z,24.03
